createdAt,value
2023-01-19T00:02:57.679Z,100.00
2023-01-19T00:07:03.226Z,100.00
2023-01-19T00:11:06.339Z,100.00
2023-01-19T00:15:09.629Z,100.00
2023-01-19T00:19:12.615Z,100.00
2023-01-19T00:23:16.540Z,100.00
2023-01-19T00:27:22.408Z,100.00
2023-01-19T00:31:25.288Z,100.00
2023-01-19T00:35:32.383Z,99.98
2023-01-19T00:39:35.175Z,100.00
2023-01-19T00:43:38.010Z,100.00
2023-01-19T00:47:41.065Z,100.00
2023-01-19T00:51:43.827Z,99.97
2023-01-19T00:55:46.791Z,99.14
2023-01-19T00:59:49.707Z,100.00
2023-01-19T01:03:53.540Z,100.00
2023-01-19T01:08:01.817Z,99.98
2023-01-19T01:12:07.283Z,99.49
2023-01-19T01:16:16.592Z,98.92
2023-01-19T01:20:22.846Z,98.22
2023-01-19T01:24:26.135Z,98.46
2023-01-19T01:28:28.904Z,99.49
2023-01-19T01:32:31.628Z,99.40
2023-01-19T01:36:35.605Z,99.85
2023-01-19T01:40:41.333Z,99.81
2023-01-19T01:44:53.049Z,100.00
2023-01-19T01:49:13.201Z,100.00
2023-01-19T01:53:16.139Z,100.00
2023-01-19T01:57:23.140Z,100.00
2023-01-19T02:01:50.552Z,100.00
2023-01-19T02:05:57.603Z,100.00
2023-01-19T02:10:19.063Z,100.00
2023-01-19T02:14:21.773Z,100.00
2023-01-19T02:18:28.743Z,100.00
2023-01-19T02:22:38.578Z,100.00
2023-01-19T02:26:55.390Z,100.00
2023-01-19T02:30:58.219Z,100.00
2023-01-19T02:35:01.412Z,100.00
2023-01-19T02:39:05.839Z,100.00
2023-01-19T02:43:09.402Z,100.00
2023-01-19T02:47:13.178Z,100.00
2023-01-19T02:51:21.099Z,100.00
2023-01-19T02:55:28.494Z,100.00
2023-01-19T03:00:07.072Z,100.00
2023-01-19T03:04:40.746Z,100.00
2023-01-19T03:09:04.373Z,100.00
2023-01-19T03:13:07.018Z,100.00
2023-01-19T03:17:11.895Z,100.00
2023-01-19T03:21:19.636Z,100.00
2023-01-19T03:25:31.409Z,100.00
2023-01-19T03:29:36.705Z,100.00
2023-01-19T03:33:45.171Z,100.00
2023-01-19T03:37:50.666Z,100.00
2023-01-19T03:41:58.908Z,100.00
2023-01-19T03:46:05.511Z,100.00
2023-01-19T03:50:14.952Z,100.00
2023-01-19T03:54:17.687Z,100.00
2023-01-19T03:58:20.427Z,100.00
2023-01-19T04:02:24.576Z,100.00
2023-01-19T04:06:28.393Z,100.00
2023-01-19T04:10:32.018Z,100.00
2023-01-19T04:14:34.785Z,100.00
2023-01-19T04:18:37.989Z,100.00
2023-01-19T04:22:40.789Z,100.00
2023-01-19T04:26:43.871Z,100.00
2023-01-19T04:30:50.874Z,100.00
2023-01-19T04:34:56.103Z,100.00
2023-01-19T04:38:59.474Z,100.00
2023-01-19T04:43:02.790Z,100.00
2023-01-19T04:47:06.672Z,100.00
2023-01-19T04:51:09.978Z,100.00
2023-01-19T04:55:14.431Z,100.00
2023-01-19T04:59:17.207Z,100.00
2023-01-19T05:03:21.468Z,100.00
2023-01-19T05:07:24.269Z,100.00
2023-01-19T05:11:27.666Z,100.00
2023-01-19T05:15:30.389Z,100.00
2023-01-19T05:19:50.768Z,100.00
2023-01-19T05:23:53.506Z,100.00
2023-01-19T05:28:08.711Z,100.00
2023-01-19T05:32:12.009Z,100.00
2023-01-19T05:36:14.810Z,100.00
2023-01-19T05:40:17.508Z,100.00
2023-01-19T05:44:37.795Z,100.00
2023-01-19T05:48:40.626Z,97.95
2023-01-19T05:52:43.315Z,96.59
2023-01-19T05:56:46.068Z,95.85
2023-01-19T06:00:49.381Z,95.54
2023-01-19T06:04:52.166Z,95.91
2023-01-19T06:08:54.933Z,96.83
2023-01-19T06:12:57.724Z,96.97
2023-01-19T06:17:00.618Z,96.27
2023-01-19T06:21:06.187Z,96.62
2023-01-19T06:25:09.421Z,95.74
2023-01-19T06:29:14.863Z,94.91
2023-01-19T06:33:18.694Z,94.50
2023-01-19T06:37:21.759Z,93.68
2023-01-19T06:41:38.958Z,94.24
2023-01-19T06:45:41.903Z,93.48
2023-01-19T06:49:51.942Z,93.62
2023-01-19T06:53:54.735Z,95.48
2023-01-19T06:57:58.994Z,96.26
2023-01-19T07:02:26.511Z,96.92
2023-01-19T07:06:27.695Z,97.42
2023-01-19T07:11:26.030Z,97.53
2023-01-19T07:14:57.920Z,98.00
2023-01-19T07:19:01.052Z,97.98
2023-01-19T07:23:04.364Z,97.86
2023-01-19T07:27:07.151Z,97.81
2023-01-19T07:31:10.469Z,97.61
2023-01-19T07:35:13.286Z,97.15
2023-01-19T07:39:16.296Z,96.41
2023-01-19T07:43:19.815Z,96.37
2023-01-19T07:47:26.594Z,97.61
2023-01-19T07:51:29.763Z,98.89
2023-01-19T07:55:32.689Z,98.55
2023-01-19T07:59:35.428Z,98.07
2023-01-19T08:03:38.751Z,98.17
2023-01-19T08:08:09.386Z,98.17
2023-01-19T08:12:12.087Z,98.04
2023-01-19T08:16:15.198Z,98.20
2023-01-19T08:20:17.977Z,97.77
2023-01-19T08:24:22.990Z,97.35
2023-01-19T08:28:26.117Z,96.77
2023-01-19T08:32:33.548Z,95.90
2023-01-19T08:36:36.328Z,94.54
2023-01-19T08:41:02.607Z,94.01
2023-01-19T08:45:09.792Z,93.67
2023-01-19T08:49:15.015Z,91.55
2023-01-19T08:53:21.611Z,90.68
2023-01-19T08:57:26.100Z,89.21
2023-01-19T09:05:56.031Z,88.66
2023-01-19T09:09:59.587Z,88.22
2023-01-19T09:14:04.290Z,86.97
2023-01-19T09:18:15.311Z,85.96
2023-01-19T09:22:19.301Z,84.91
2023-01-19T09:26:23.791Z,83.20
2023-01-19T09:30:27.802Z,82.69
2023-01-19T09:34:31.474Z,82.09
2023-01-19T09:38:34.475Z,81.67
2023-01-19T09:42:43.932Z,81.29
2023-01-19T09:46:46.931Z,80.14
2023-01-19T09:50:50.298Z,80.12
2023-01-19T09:54:56.867Z,78.54
2023-01-19T09:59:00.906Z,78.52
2023-01-19T10:03:16.703Z,76.51
2023-01-19T10:07:26.433Z,75.60
2023-01-19T10:11:53.021Z,75.73
2023-01-19T10:16:21.258Z,74.59
2023-01-19T10:20:30.463Z,72.35
2023-01-19T10:24:41.719Z,72.74
2023-01-19T10:28:47.011Z,72.64
2023-01-19T10:32:51.139Z,72.32
2023-01-19T10:37:02.814Z,73.60
2023-01-19T10:41:13.356Z,71.86
2023-01-19T10:45:24.464Z,71.62
2023-01-19T10:49:38.121Z,71.99
2023-01-19T10:53:44.059Z,71.09
2023-01-19T10:57:49.798Z,71.23
2023-01-19T11:02:18.298Z,70.20
2023-01-19T11:06:24.786Z,70.87
2023-01-19T11:10:30.152Z,70.99
2023-01-19T11:14:33.019Z,70.33
2023-01-19T11:18:38.807Z,70.01
2023-01-19T11:22:41.747Z,68.74
2023-01-19T11:26:48.116Z,70.97
2023-01-19T11:30:56.898Z,69.81
2023-01-19T11:35:22.907Z,68.09
2023-01-19T11:39:28.787Z,68.31
2023-01-19T11:43:47.443Z,68.42
2023-01-19T11:47:52.867Z,69.04
2023-01-19T11:52:06.819Z,69.04
2023-01-19T11:56:15.115Z,69.42
2023-01-19T12:00:54.753Z,69.15
2023-01-19T12:05:06.502Z,68.65
2023-01-19T12:09:19.401Z,67.38
2023-01-19T12:13:25.219Z,67.87
2023-01-19T12:17:38.205Z,68.89
2023-01-19T12:21:41.965Z,66.96
2023-01-19T12:26:02.542Z,68.72
2023-01-19T12:30:17.458Z,70.00
2023-01-19T12:34:27.271Z,70.25
2023-01-19T12:38:37.718Z,70.51
2023-01-19T12:42:51.378Z,69.99
2023-01-19T12:46:56.055Z,69.53
2023-01-19T12:50:59.341Z,69.48
2023-01-19T12:55:14.580Z,69.60
2023-01-19T12:59:26.933Z,70.15
2023-01-19T13:03:29.756Z,72.37
2023-01-19T13:08:06.876Z,71.39
2023-01-19T13:12:26.088Z,70.85
2023-01-19T13:16:28.825Z,69.02
2023-01-19T13:20:46.746Z,68.41
2023-01-19T13:25:12.535Z,68.11
2023-01-19T13:29:40.517Z,68.58
2023-01-19T13:33:53.986Z,70.24
2023-01-19T13:38:02.846Z,70.02
2023-01-19T13:42:15.074Z,70.60
2023-01-19T13:46:19.579Z,71.64
2023-01-19T13:50:25.317Z,71.56
2023-01-19T13:54:28.820Z,71.48
2023-01-19T13:58:32.103Z,71.80
2023-01-19T14:02:35.144Z,72.25
2023-01-19T14:06:44.783Z,71.89
2023-01-19T14:11:02.491Z,71.69
2023-01-19T14:15:13.021Z,72.11
2023-01-19T14:19:15.880Z,73.07
2023-01-19T14:23:41.795Z,73.78
2023-01-19T14:27:44.649Z,73.77
2023-01-19T14:32:11.382Z,73.97
2023-01-19T14:36:16.809Z,73.31
2023-01-19T14:40:22.513Z,72.68
2023-01-19T14:44:33.877Z,72.00
2023-01-19T14:48:37.056Z,71.38
2023-01-19T14:52:43.715Z,71.20
2023-01-19T14:56:48.182Z,71.10
2023-01-19T15:00:55.709Z,71.43
2023-01-19T15:05:01.665Z,73.73
2023-01-19T15:09:04.775Z,76.22
2023-01-19T15:13:18.984Z,78.16
2023-01-19T15:17:25.759Z,78.75
2023-01-19T15:21:28.729Z,79.52
2023-01-19T15:25:31.656Z,80.67
2023-01-19T15:29:34.615Z,80.68
2023-01-19T15:33:37.447Z,81.45
2023-01-19T15:37:40.538Z,81.90
2023-01-19T15:41:46.531Z,83.82
2023-01-19T15:46:00.766Z,83.54
2023-01-19T15:50:04.012Z,83.92
2023-01-19T15:54:12.582Z,84.07
2023-01-19T15:58:15.826Z,84.17
2023-01-19T16:02:19.016Z,83.56
2023-01-19T16:06:22.137Z,83.43
2023-01-19T16:10:25.714Z,84.17
2023-01-19T16:14:28.685Z,85.47
2023-01-19T16:18:31.854Z,86.14
2023-01-19T16:22:34.854Z,85.74
2023-01-19T16:26:37.864Z,85.85
2023-01-19T16:30:40.918Z,86.85
2023-01-19T16:34:44.703Z,87.81
2023-01-19T16:38:47.577Z,87.48
2023-01-19T16:42:51.178Z,86.82
2023-01-19T16:46:54.562Z,86.53
2023-01-19T16:51:01.315Z,87.00
2023-01-19T16:55:08.914Z,87.39
2023-01-19T16:59:14.688Z,87.96
2023-01-19T17:03:17.620Z,88.22
2023-01-19T17:07:20.565Z,88.61
2023-01-19T17:11:26.877Z,88.15
2023-01-19T17:15:31.541Z,87.30
2023-01-19T17:19:34.468Z,86.71
2023-01-19T17:23:42.086Z,87.37
2023-01-19T17:27:44.991Z,86.30
2023-01-19T17:31:50.369Z,84.93
2023-01-19T17:35:53.399Z,85.03
2023-01-19T17:39:56.746Z,85.91
2023-01-19T17:44:00.941Z,86.75
2023-01-19T17:48:05.168Z,86.94
2023-01-19T17:52:08.205Z,86.42
2023-01-19T17:56:14.561Z,86.30
2023-01-19T18:00:18.314Z,85.61
2023-01-19T18:04:21.207Z,85.22
2023-01-19T18:08:24.789Z,85.06
2023-01-19T18:12:27.669Z,84.76
2023-01-19T18:16:31.001Z,85.59
2023-01-19T18:20:33.916Z,85.98
2023-01-19T18:24:40.916Z,85.71
2023-01-19T18:28:44.401Z,85.64
2023-01-19T18:32:47.287Z,85.57
2023-01-19T18:36:50.138Z,85.83
2023-01-19T18:41:14.000Z,86.47
2023-01-19T18:45:17.575Z,86.57
2023-01-19T18:49:20.394Z,86.86
2023-01-19T18:53:23.892Z,86.71
2023-01-19T18:57:27.124Z,87.02
2023-01-19T19:01:39.259Z,89.50
2023-01-19T19:05:42.481Z,91.22
2023-01-19T19:09:45.655Z,92.74
2023-01-19T19:13:53.691Z,92.75
2023-01-19T19:17:56.793Z,91.90
2023-01-19T19:21:59.941Z,91.79
2023-01-19T19:26:05.186Z,91.27
2023-01-19T19:30:11.308Z,90.88
2023-01-19T19:34:15.934Z,90.06
2023-01-19T19:38:18.807Z,89.37
2023-01-19T19:42:22.006Z,89.34
2023-01-19T19:46:26.188Z,88.71
2023-01-19T19:50:29.337Z,88.29
2023-01-19T19:54:32.325Z,87.94
2023-01-19T19:58:35.923Z,87.71
2023-01-19T20:02:38.891Z,87.39
2023-01-19T20:06:44.874Z,86.54
2023-01-19T20:10:48.052Z,87.12
2023-01-19T20:14:50.911Z,88.57
2023-01-19T20:18:54.383Z,90.84
2023-01-19T20:22:59.092Z,92.36
2023-01-19T20:27:02.313Z,94.11
2023-01-19T20:31:19.270Z,95.84
2023-01-19T20:35:22.424Z,96.52
2023-01-19T20:39:25.578Z,96.71
2023-01-19T20:43:29.688Z,95.42
2023-01-19T20:47:32.690Z,94.29
2023-01-19T20:51:37.397Z,93.80
2023-01-19T20:55:40.575Z,93.41
2023-01-19T20:59:43.499Z,92.81
2023-01-19T21:03:47.195Z,92.30
2023-01-19T21:07:51.146Z,91.88
2023-01-19T21:11:57.736Z,91.17
2023-01-19T21:16:01.909Z,91.05
2023-01-19T21:20:07.213Z,91.30
2023-01-19T21:24:11.929Z,90.14
2023-01-19T21:28:15.769Z,90.11
2023-01-19T21:32:19.141Z,89.55
2023-01-19T21:36:25.551Z,88.74
2023-01-19T21:40:30.039Z,87.06
2023-01-19T21:44:34.189Z,87.32
2023-01-19T21:48:37.992Z,87.69
2023-01-19T21:52:44.031Z,87.02
2023-01-19T21:56:47.564Z,86.94
2023-01-19T22:00:51.490Z,86.21
2023-01-19T22:04:59.129Z,86.02
2023-01-19T22:09:05.713Z,86.13
2023-01-19T22:17:31.889Z,85.69
2023-01-19T22:21:36.443Z,86.04
2023-01-19T22:25:40.871Z,86.34
2023-01-19T22:29:44.658Z,87.01
2023-01-19T22:33:54.255Z,87.19
2023-01-19T22:37:57.128Z,87.13
2023-01-19T22:42:00.126Z,87.44
2023-01-19T22:46:04.154Z,87.52
2023-01-19T22:50:08.693Z,88.58
2023-01-19T22:54:12.727Z,90.17
2023-01-19T22:58:15.446Z,90.70
2023-01-19T23:02:20.683Z,90.69
2023-01-19T23:06:29.161Z,90.32
2023-01-19T23:10:32.194Z,90.18
2023-01-19T23:14:36.263Z,89.77
2023-01-19T23:18:39.693Z,89.76
2023-01-19T23:22:46.763Z,89.72
2023-01-19T23:26:50.528Z,89.60
2023-01-19T23:30:53.275Z,89.65
2023-01-19T23:34:56.654Z,88.77
2023-01-19T23:39:02.210Z,87.35
2023-01-19T23:43:05.270Z,87.31
2023-01-19T23:47:08.198Z,87.35
2023-01-19T23:51:12.722Z,87.58
2023-01-19T23:55:16.947Z,87.06
2023-01-19T23:59:19.638Z,86.63
